Time;durP1;ratioP1;P1;durP2;ratioP2;P2;SDS_P1;SDS_P2;PMS_P1;PMS_P2;Temp;Humidity;BMP_temperature;BMP_pressure;BME280_temperature;BME280_humidity;BME280_pressure;Samples;Min_cycle;Max_cycle;Signal;HPM_P1;HPM_P2
2022/10/05 00:00:56;;;;;;;6.88;5.60;;;14.80;99.90;;;;;;4964399;28;20070;-76
2022/10/05 00:03:24;;;;;;;6.05;5.40;;;14.70;99.90;;;;;;4972480;28;20461;-76
2022/10/05 00:05:50;;;;;;;6.22;5.63;;;14.70;99.90;;;;;;4952937;28;20074;-76
2022/10/05 00:08:21;;;;;;;8.27;4.97;;;14.70;99.90;;;;;;4936960;29;20079;-76
2022/10/05 00:10:47;;;;;;;5.60;5.10;;;14.70;99.90;;;;;;4952869;28;20054;-76
2022/10/05 00:13:22;;;;;;;6.05;5.25;;;14.70;99.90;;;;;;4944296;28;20043;-76
2022/10/05 00:15:48;;;;;;;6.57;5.10;;;14.70;99.90;;;;;;4952464;28;20044;-76
2022/10/05 00:18:17;;;;;;;6.68;5.38;;;14.70;99.90;;;;;;4936691;29;20138;-76
2022/10/05 00:20:44;;;;;;;5.97;5.00;;;14.70;99.90;;;;;;4952662;28;20049;-76
2022/10/05 00:23:17;;;;;;;6.50;5.05;;;14.70;99.90;;;;;;4943701;28;20573;-76
2022/10/05 00:25:43;;;;;;;7.15;5.38;;;14.70;99.90;;;;;;4951071;28;20046;-76
2022/10/05 00:28:34;;;;;;;7.57;5.35;;;14.70;99.90;;;;;;4944867;29;20043;-76
2022/10/05 00:31:00;;;;;;;7.10;5.45;;;14.70;99.90;;;;;;4952089;29;20051;-76
2022/10/05 00:33:27;;;;;;;6.95;5.93;;;14.70;99.90;;;;;;4952775;28;20053;-76
2022/10/05 00:35:53;;;;;;;6.18;5.57;;;14.70;99.90;;;;;;4935828;29;20031;-76
2022/10/05 00:38:19;;;;;;;7.40;5.97;;;14.70;99.90;;;;;;4946368;29;20526;-76
2022/10/05 00:41:00;;;;;;;7.60;6.20;;;14.70;99.90;;;;;;4949703;29;20108;-76
2022/10/05 00:44:12;;;;;;;8.10;5.82;;;14.70;99.90;;;;;;4936358;28;20066;-76
2022/10/05 00:46:49;;;;;;;7.53;6.30;;;14.70;99.90;;;;;;4952454;29;20043;-76
2022/10/05 00:49:32;;;;;;;7.38;6.50;;;14.70;99.90;;;;;;4942972;28;20126;-76
2022/10/05 00:52:09;;;;;;;7.55;6.28;;;14.70;99.90;;;;;;4928387;29;20051;-76
2022/10/05 00:54:44;;;;;;;8.00;6.20;;;14.70;99.90;;;;;;4952024;28;20074;-76
2022/10/05 00:57:22;;;;;;;8.25;6.20;;;14.70;99.90;;;;;;4954401;28;20054;-76
2022/10/05 01:00:07;;;;;;;7.57;6.22;;;14.70;99.90;;;;;;4956607;28;20043;-76
2022/10/05 01:02:48;;;;;;;7.85;6.55;;;14.70;99.90;;;;;;4951915;28;20035;-76
2022/10/05 01:05:35;;;;;;;7.72;6.70;;;14.70;99.90;;;;;;4940230;29;20498;-75
2022/10/05 01:08:16;;;;;;;7.85;6.13;;;14.70;99.90;;;;;;4955861;29;20047;-76
2022/10/05 01:11:08;;;;;;;10.38;6.78;;;14.70;99.90;;;;;;4956146;29;20517;-76
2022/10/05 01:13:40;;;;;;;8.10;6.88;;;14.70;99.90;;;;;;4950685;28;20182;-76
2022/10/05 01:16:27;;;;;;;8.07;7.20;;;14.60;99.90;;;;;;4955023;29;20565;-76
2022/10/05 01:19:04;;;;;;;7.80;6.57;;;14.60;99.90;;;;;;4953973;29;20043;-76
2022/10/05 01:21:41;;;;;;;8.02;7.22;;;14.60;99.90;;;;;;4939881;29;20633;-76
2022/10/05 01:24:28;;;;;;;8.20;7.10;;;14.60;99.90;;;;;;4955713;28;20043;-76
2022/10/05 01:27:29;;;;;;;7.97;7.15;;;14.60;99.90;;;;;;4954001;29;20516;-77
2022/10/05 01:30:04;;;;;;;9.10;7.40;;;14.60;99.90;;;;;;4955977;29;20047;-76
2022/10/05 01:32:43;;;;;;;8.93;7.60;;;14.60;99.90;;;;;;4939660;29;20043;-76
2022/10/05 01:35:32;;;;;;;8.68;7.25;;;14.60;99.90;;;;;;4955626;28;20035;-76
2022/10/05 01:38:10;;;;;;;7.85;6.82;;;14.60;99.90;;;;;;4955415;29;20528;-76
2022/10/05 01:41:02;;;;;;;10.90;7.63;;;14.50;99.90;;;;;;4939382;29;20035;-76
2022/10/05 01:43:52;;;;;;;8.80;7.28;;;14.50;99.90;;;;;;4920627;29;20496;-76
2022/10/05 01:46:25;;;;;;;8.70;7.30;;;14.50;99.90;;;;;;4920515;29;20040;-76
2022/10/05 01:48:57;;;;;;;10.13;7.30;;;14.50;99.90;;;;;;4936039;29;20055;-76
2022/10/05 01:51:36;;;;;;;8.52;7.30;;;14.50;99.90;;;;;;4927433;29;20143;-75
2022/10/05 01:54:21;;;;;;;8.48;7.35;;;14.50;99.90;;;;;;4951652;28;20048;-76
2022/10/05 01:57:21;;;;;;;8.60;7.10;;;14.50;99.90;;;;;;4944286;29;20078;-76
2022/10/05 02:00:10;;;;;;;10.95;7.28;;;14.50;99.90;;;;;;4952975;29;20039;-76
2022/10/05 02:02:40;;;;;;;8.35;6.93;;;14.50;99.90;;;;;;4955132;29;20107;-76
2022/10/05 02:05:17;;;;;;;10.52;6.60;;;14.50;99.90;;;;;;4950890;28;20055;-76
2022/10/05 02:08:11;;;;;;;9.63;7.28;;;14.50;99.90;;;;;;4943144;28;20056;-76
2022/10/05 02:10:42;;;;;;;8.50;6.78;;;14.50;99.90;;;;;;4952573;29;20058;-76
2022/10/05 02:13:20;;;;;;;8.10;7.30;;;14.50;99.90;;;;;;4954963;28;20110;-76
2022/10/05 02:15:53;;;;;;;7.97;6.93;;;14.50;99.90;;;;;;4954897;28;20462;-76
2022/10/05 02:18:22;;;;;;;7.47;6.57;;;14.50;99.90;;;;;;4954844;28;20043;-76
2022/10/05 02:20:51;;;;;;;8.57;7.18;;;14.50;99.90;;;;;;4946190;28;20068;-76
2022/10/05 02:23:22;;;;;;;8.63;6.63;;;14.50;99.90;;;;;;4939124;29;20142;-76
2022/10/05 02:25:51;;;;;;;7.47;6.78;;;14.40;99.90;;;;;;4954695;28;20047;-76
2022/10/05 02:28:32;;;;;;;8.85;6.70;;;14.40;99.90;;;;;;4954396;29;20051;-76
2022/10/05 02:31:07;;;;;;;8.10;6.93;;;14.50;99.90;;;;;;4946010;28;20047;-76
2022/10/05 02:33:34;;;;;;;8.93;7.18;;;14.40;99.90;;;;;;4954693;28;20051;-76
2022/10/05 02:36:22;;;;;;;8.98;7.22;;;14.40;99.90;;;;;;4938495;29;20039;-76
2022/10/05 02:38:54;;;;;;;8.65;6.72;;;14.40;99.90;;;;;;4952482;28;20046;-76
2022/10/05 02:41:45;;;;;;;8.18;6.57;;;14.40;99.90;;;;;;4948632;29;20396;-76
2022/10/05 02:44:34;;;;;;;7.85;6.90;;;14.40;99.90;;;;;;4937649;29;20035;-76
2022/10/05 02:47:12;;;;;;;8.13;6.15;;;14.40;99.90;;;;;;4954099;29;20036;-76
2022/10/05 02:50:04;;;;;;;7.50;6.30;;;14.40;99.90;;;;;;4954516;29;20126;-76
2022/10/05 02:52:46;;;;;;;8.02;7.18;;;14.40;99.90;;;;;;4941028;29;20055;-76
2022/10/05 02:55:44;;;;;;;8.18;7.20;;;14.40;99.90;;;;;;4953304;28;20086;-76
2022/10/05 02:58:20;;;;;;;7.80;6.03;;;14.40;99.90;;;;;;4949531;29;20379;-76
2022/10/05 03:01:08;;;;;;;9.80;6.47;;;14.40;99.90;;;;;;4935498;29;20066;-76
2022/10/05 03:03:42;;;;;;;8.20;6.90;;;14.40;99.90;;;;;;4953943;28;20047;-76
2022/10/05 03:06:16;;;;;;;7.55;6.72;;;14.40;99.90;;;;;;4953968;28;20039;-75
2022/10/05 03:09:06;;;;;;;9.18;6.97;;;14.30;99.90;;;;;;4953737;28;20047;-76
2022/10/05 03:12:08;;;;;;;8.07;6.88;;;14.30;99.90;;;;;;4949493;29;20102;-76
2022/10/05 03:14:48;;;;;;;7.82;7.00;;;14.30;99.90;;;;;;4934477;29;20071;-76
2022/10/05 03:17:21;;;;;;;7.82;6.82;;;14.30;99.90;;;;;;4934503;29;20043;-76
2022/10/05 03:20:10;;;;;;;7.68;6.55;;;14.30;99.90;;;;;;4933960;29;20039;-76
2022/10/05 03:22:56;;;;;;;9.15;6.55;;;14.30;99.90;;;;;;4934443;29;20067;-76
2022/10/05 03:25:36;;;;;;;9.35;7.70;;;14.20;99.90;;;;;;4957796;28;20047;-76
2022/10/05 03:28:24;;;;;;;8.20;7.00;;;14.20;99.90;;;;;;4952846;29;20047;-76
2022/10/05 03:31:30;;;;;;;8.20;7.40;;;14.20;99.90;;;;;;4953542;29;20051;-76
2022/10/05 03:34:05;;;;;;;8.82;7.30;;;14.20;99.90;;;;;;4952248;28;20159;-76
2022/10/05 03:36:51;;;;;;;8.32;7.07;;;14.10;99.90;;;;;;4945333;29;20039;-76
2022/10/05 03:39:35;;;;;;;9.27;7.68;;;14.10;99.90;;;;;;4934056;29;20420;-76
2022/10/05 03:42:23;;;;;;;;;;;14.20;99.90;;;;;;4934656;29;20046;-76
2022/10/05 03:44:51;;;;;;;8.88;7.47;;;14.10;99.90;;;;;;4934155;29;19922;-76
2022/10/05 03:47:52;;;;;;;8.75;7.55;;;14.10;99.90;;;;;;4933823;29;20058;-76
2022/10/05 03:51:02;;;;;;;8.60;7.70;;;14.10;99.90;;;;;;4947114;29;20050;-76
2022/10/05 03:53:36;;;;;;;8.65;7.57;;;14.10;99.90;;;;;;4944475;28;20085;-76
2022/10/05 03:56:15;;;;;;;10.95;7.80;;;14.10;99.90;;;;;;4953043;29;20050;-76
2022/10/05 03:58:47;;;;;;;9.45;8.00;;;14.10;99.90;;;;;;4952821;29;20053;-76
2022/10/05 04:01:20;;;;;;;8.10;7.15;;;14.10;99.90;;;;;;4947937;29;20039;-76
2022/10/05 04:03:51;;;;;;;9.55;7.90;;;14.10;99.90;;;;;;4941883;29;20043;-76
2022/10/05 04:06:22;;;;;;;9.10;8.13;;;14.20;99.90;;;;;;4952946;29;20256;-76
2022/10/05 04:09:05;;;;;;;10.95;8.30;;;14.10;99.90;;;;;;4936706;29;20531;-76
2022/10/05 04:11:39;;;;;;;9.07;7.85;;;14.10;99.90;;;;;;4936895;29;20099;-76
2022/10/05 04:14:17;;;;;;;10.77;7.95;;;14.10;99.90;;;;;;4948784;28;20036;-76
2022/10/05 04:16:53;;;;;;;12.23;8.23;;;14.10;99.90;;;;;;4950221;29;20142;-76
2022/10/05 04:19:36;;;;;;;9.90;8.30;;;14.10;99.90;;;;;;4952950;28;20394;-76
2022/10/05 04:22:28;;;;;;;8.75;7.85;;;14.10;99.90;;;;;;4936679;29;20502;-76
2022/10/05 04:25:05;;;;;;;9.77;7.65;;;14.10;99.90;;;;;;4952512;28;20047;-76
2022/10/05 04:27:42;;;;;;;11.98;7.97;;;14.10;99.90;;;;;;4952367;29;20107;-76
2022/10/05 04:30:17;;;;;;;12.02;7.75;;;14.10;99.90;;;;;;4943938;28;20070;-76
2022/10/05 04:32:53;;;;;;;9.85;7.70;;;14.10;99.90;;;;;;4936355;29;20142;-76
2022/10/05 04:35:39;;;;;;;8.95;8.02;;;14.00;99.90;;;;;;4952429;28;20039;-76
2022/10/05 04:38:34;;;;;;;9.50;7.65;;;14.00;99.90;;;;;;4952363;29;20039;-76
2022/10/05 04:41:18;;;;;;;9.20;7.75;;;14.00;99.90;;;;;;4944081;29;20044;-76
2022/10/05 04:44:02;;;;;;;10.02;8.07;;;13.90;99.90;;;;;;4949451;28;20043;-76
2022/10/05 04:46:56;;;;;;;9.13;8.20;;;13.90;99.90;;;;;;4952576;29;20043;-76
2022/10/05 04:49:39;;;;;;;;;;;13.90;99.90;;;;;;4953093;29;20410;-76
2022/10/05 04:52:24;;;;;;;9.25;7.78;;;13.90;99.90;;;;;;4951775;29;20009;-78
2022/10/05 04:55:09;;;;;;;9.10;8.18;;;13.90;99.90;;;;;;4928490;29;20398;-76
2022/10/05 04:57:49;;;;;;;9.38;7.97;;;13.90;99.90;;;;;;4951975;29;20054;-76
2022/10/05 05:00:27;;;;;;;10.93;8.38;;;13.90;99.90;;;;;;4952568;29;20130;-76
2022/10/05 05:03:23;;;;;;;9.80;7.90;;;13.90;99.90;;;;;;4936215;29;20043;-76
2022/10/05 05:06:14;;;;;;;9.57;7.95;;;13.90;99.90;;;;;;4944977;29;20111;-76
2022/10/05 05:09:16;;;;;;;11.73;9.07;;;14.00;99.90;;;;;;4932551;29;20051;-76
2022/10/05 05:12:01;;;;;;;9.38;8.38;;;14.00;99.90;;;;;;4952111;29;20183;-76
2022/10/05 05:14:39;;;;;;;9.10;8.20;;;14.00;99.90;;;;;;4935942;29;20509;-76
2022/10/05 05:17:42;;;;;;;9.98;8.25;;;14.00;99.90;;;;;;4951923;29;20050;-76
2022/10/05 05:20:19;;;;;;;9.73;8.27;;;14.00;99.90;;;;;;4942896;28;20035;-76
2022/10/05 05:23:02;;;;;;;9.80;8.80;;;13.90;99.90;;;;;;4952067;29;20447;-76
2022/10/05 05:25:54;;;;;;;9.90;8.95;;;14.00;99.90;;;;;;4951959;28;20146;-76
2022/10/05 05:28:36;;;;;;;10.82;8.50;;;13.90;99.90;;;;;;4935807;29;20098;-76
2022/10/05 05:31:10;;;;;;;11.07;9.35;;;13.90;99.90;;;;;;4952056;29;20133;-76
2022/10/05 05:34:07;;;;;;;9.85;8.60;;;14.00;99.90;;;;;;4951270;29;20040;-76
2022/10/05 05:36:52;;;;;;;10.35;8.45;;;14.00;99.90;;;;;;4935181;29;20402;-76
2022/10/05 05:39:40;;;;;;;9.73;8.60;;;14.00;99.90;;;;;;4937068;29;20059;-76
2022/10/05 05:42:20;;;;;;;9.77;8.68;;;14.00;99.90;;;;;;4936518;29;20535;-76
2022/10/05 05:44:50;;;;;;;10.18;8.63;;;14.10;99.90;;;;;;4953881;28;20051;-78
2022/10/05 05:47:38;;;;;;;9.73;8.45;;;14.00;99.90;;;;;;4950293;29;20094;-77
2022/10/05 05:50:29;;;;;;;11.68;9.20;;;14.00;99.90;;;;;;4936284;29;20036;-77
2022/10/05 05:53:20;;;;;;;9.85;8.90;;;14.00;99.90;;;;;;4936412;29;20046;-77
2022/10/05 05:56:36;;;;;;;10.13;8.98;;;14.00;99.90;;;;;;5457745;23;20051;-79
2022/10/05 05:59:53;;;;;;;10.88;9.35;;;14.00;99.90;;;;;;4943665;28;20178;-78
2022/10/05 06:02:26;;;;;;;11.45;9.20;;;14.00;99.90;;;;;;4932089;28;20176;-78
2022/10/05 06:05:05;;;;;;;10.68;9.57;;;14.00;99.90;;;;;;4935085;29;20054;-78
2022/10/05 06:11:48;;;;;;;9.63;8.63;;;14.00;99.90;;;;;;4956365;28;20421;-77
2022/10/05 06:18:34;;;;;;;8.85;7.75;;;14.10;99.90;;;;;;4954003;29;20051;-77
2022/10/05 06:21:47;;;;;;;8.88;8.00;;;14.10;99.90;;;;;;4926824;29;20439;-78
2022/10/05 06:25:21;;;;;;;8.85;7.95;;;14.10;99.90;;;;;;4902414;29;20055;-78
2022/10/05 06:28:23;;;;;;;8.80;7.90;;;14.20;99.90;;;;;;4935874;29;20085;-78
2022/10/05 06:31:43;;;;;;;9.18;8.27;;;14.10;99.90;;;;;;4931034;28;20047;-78
2022/10/05 06:34:47;;;;;;;9.30;7.82;;;14.10;99.90;;;;;;4948076;28;20043;-79
2022/10/05 06:37:34;;;;;;;;;;;14.20;99.90;;;;;;4950514;28;20059;-77
2022/10/05 06:40:37;;;;;;;9.23;8.15;;;14.10;99.90;;;;;;4939498;29;19918;-78
2022/10/05 06:43:14;;;;;;;9.48;8.48;;;14.20;99.90;;;;;;4969986;28;20078;-78
2022/10/05 06:45:57;;;;;;;8.57;7.65;;;14.20;99.90;;;;;;4937352;29;20075;-78
2022/10/05 06:49:02;;;;;;;8.60;6.97;;;14.20;99.90;;;;;;4922616;29;20066;-78
2022/10/05 06:51:49;;;;;;;7.47;6.78;;;14.30;99.90;;;;;;4922932;29;20562;-78
2022/10/05 06:54:42;;;;;;;9.93;6.60;;;14.30;99.90;;;;;;4936722;29;20078;-78
2022/10/05 06:57:31;;;;;;;;;;;;;;;;;;;;;
2022/10/05 07:00:36;;;;;;;6.60;5.90;;;14.30;99.90;;;;;;4957416;29;20043;-79
2022/10/05 07:03:53;;;;;;;7.57;6.88;;;14.40;99.90;;;;;;4952784;29;20046;-79
2022/10/05 07:06:44;;;;;;;6.63;5.97;;;14.30;99.90;;;;;;4935715;29;20047;-78
2022/10/05 07:09:59;;;;;;;6.57;5.97;;;14.40;99.90;;;;;;4921776;29;20174;-78
2022/10/05 07:12:53;;;;;;;7.78;6.65;;;14.40;99.90;;;;;;4940738;29;20536;-79
2022/10/05 07:15:40;;;;;;;7.93;7.13;;;14.40;99.90;;;;;;4955734;28;20046;-78
2022/10/05 07:18:55;;;;;;;7.75;6.95;;;14.40;99.90;;;;;;4953311;28;20046;-79
2022/10/05 07:21:38;;;;;;;8.13;7.10;;;14.50;99.90;;;;;;4955869;29;20075;-78
2022/10/05 07:24:29;;;;;;;7.93;7.13;;;14.50;99.90;;;;;;4955933;28;20043;-79
2022/10/05 07:27:06;;;;;;;8.20;7.35;;;14.50;99.90;;;;;;4939615;29;20046;-78
2022/10/05 07:30:11;;;;;;;9.10;7.82;;;14.50;99.90;;;;;;4968840;28;20053;-78
2022/10/05 07:33:27;;;;;;;7.97;7.25;;;14.60;99.90;;;;;;4939639;29;20497;-79
2022/10/05 07:39:56;;;;;;;9.27;7.80;;;14.70;99.90;;;;;;4956084;29;20078;-79
2022/10/05 07:43:18;;;;;;;9.70;7.75;;;14.70;99.90;;;;;;4936538;29;20048;-78
2022/10/05 07:46:17;;;;;;;9.05;7.97;;;14.70;99.90;;;;;;4951572;28;20039;-78
2022/10/05 07:49:27;;;;;;;8.20;7.40;;;14.70;99.90;;;;;;4947734;28;20055;-79
2022/10/05 07:52:16;;;;;;;8.45;7.63;;;14.70;99.90;;;;;;4947009;28;20516;-78
2022/10/05 07:55:19;;;;;;;8.15;7.32;;;14.80;99.90;;;;;;4957042;28;20126;-79
2022/10/05 07:58:32;;;;;;;8.55;7.65;;;14.80;99.90;;;;;;4957263;28;20035;-79
2022/10/05 08:01:47;;;;;;;8.27;7.47;;;14.80;99.90;;;;;;4940585;29;20517;-79
2022/10/05 08:04:50;;;;;;;8.80;7.65;;;14.90;99.90;;;;;;4910504;29;20501;-79
2022/10/05 08:07:25;;;;;;;8.45;7.65;;;14.90;99.90;;;;;;4947497;28;20493;-78
2022/10/05 08:10:37;;;;;;;8.43;7.53;;;14.90;99.90;;;;;;4959593;29;20039;-78
2022/10/05 08:13:22;;;;;;;7.75;6.90;;;14.90;99.90;;;;;;4941898;29;20039;-79
2022/10/05 08:16:12;;;;;;;7.75;6.95;;;15.00;99.90;;;;;;4951685;29;20047;-78
2022/10/05 08:19:13;;;;;;;7.30;6.22;;;15.00;99.90;;;;;;4940030;29;20031;-78
2022/10/05 08:21:56;;;;;;;7.75;6.95;;;15.10;99.90;;;;;;4970938;28;20051;-79
2022/10/05 08:25:19;;;;;;;7.60;6.82;;;15.10;99.90;;;;;;4955290;28;20114;-78
2022/10/05 08:28:05;;;;;;;8.00;7.18;;;15.20;99.90;;;;;;4924755;29;20127;-77
2022/10/05 08:30:50;;;;;;;;;;;15.20;99.90;;;;;;4939221;29;20059;-78
2022/10/05 08:33:30;;;;;;;6.78;5.97;;;15.30;99.90;;;;;;4930522;29;19922;-78
2022/10/05 08:36:14;;;;;;;6.70;5.35;;;15.30;99.90;;;;;;4938875;29;20040;-78
2022/10/05 08:39:00;;;;;;;6.80;6.03;;;15.40;99.90;;;;;;4938765;29;20039;-79
2022/10/05 08:42:08;;;;;;;6.55;5.30;;;15.40;99.90;;;;;;4938372;29;20051;-79
2022/10/05 08:45:26;;;;;;;6.68;5.80;;;15.40;99.90;;;;;;4951449;28;20109;-78
2022/10/05 08:48:11;;;;;;;5.75;5.25;;;15.50;99.90;;;;;;4963009;28;20069;-78
2022/10/05 08:50:47;;;;;;;5.43;4.80;;;15.50;99.90;;;;;;4953499;28;20086;-78
2022/10/05 08:53:51;;;;;;;4.75;3.83;;;15.50;99.90;;;;;;4957482;29;20039;-79
2022/10/05 08:56:57;;;;;;;6.13;4.75;;;15.50;99.90;;;;;;4967017;28;20058;-79
2022/10/05 09:00:20;;;;;;;4.75;4.05;;;15.60;99.90;;;;;;4928566;29;20143;-79
2022/10/05 09:03:23;;;;;;;4.30;3.90;;;15.60;99.90;;;;;;4914111;28;20057;-78
2022/10/05 09:06:04;;;;;;;4.97;4.45;;;15.70;99.90;;;;;;4952668;28;20051;-79
2022/10/05 09:08:49;;;;;;;4.30;3.90;;;15.80;99.90;;;;;;4953768;28;20079;-78
2022/10/05 09:11:51;;;;;;;4.80;3.97;;;15.70;99.90;;;;;;4957990;28;20067;-78
2022/10/05 09:15:02;;;;;;;5.63;3.60;;;15.80;99.90;;;;;;4957197;28;20407;-78
2022/10/05 09:18:06;;;;;;;4.50;3.47;;;15.80;99.90;;;;;;4954285;28;20055;-78
2022/10/05 09:21:12;;;;;;;4.38;3.40;;;15.80;99.90;;;;;;4958664;29;20275;-79
2022/10/05 09:24:23;;;;;;;4.38;3.88;;;15.90;99.90;;;;;;4951718;28;20549;-78
2022/10/05 09:30:48;;;;;;;4.95;4.28;;;16.00;99.90;;;;;;4929984;29;20102;-77
2022/10/05 09:34:23;;;;;;;;;;;;;;;;;;;;;
2022/10/05 09:37:35;;;;;;;4.90;4.00;;;16.00;99.90;;;;;;4919380;29;20142;-79
2022/10/05 09:40:47;;;;;;;4.53;3.65;;;16.00;99.90;;;;;;4945038;29;20338;-79
2022/10/05 09:44:06;;;;;;;5.53;4.00;;;16.00;99.90;;;;;;4955112;29;20094;-79
2022/10/05 09:46:58;;;;;;;5.13;4.25;;;16.00;99.90;;;;;;4940650;29;20494;-78
2022/10/05 09:50:21;;;;;;;;;;;;;;;;;;;;;
2022/10/05 09:53:25;;;;;;;5.13;4.63;;;16.00;99.90;;;;;;4934569;29;20055;-79
2022/10/05 09:56:29;;;;;;;6.05;4.28;;;16.00;99.90;;;;;;4931487;28;20076;-78
2022/10/05 10:03:08;;;;;;;;;;;;;;;;;;;;;
2022/10/05 10:06:12;;;;;;;3.92;3.53;;;16.00;99.90;;;;;;4955188;28;20047;-79
2022/10/05 10:09:09;;;;;;;4.63;4.13;;;16.10;99.90;;;;;;4952465;29;20074;-81
2022/10/05 10:15:37;;;;;;;4.60;4.20;;;16.10;99.90;;;;;;4951148;29;20131;-80
2022/10/05 10:22:27;;;;;;;4.10;3.67;;;16.20;99.90;;;;;;4959053;28;20222;-79
2022/10/05 10:25:34;;;;;;;4.97;4.00;;;16.20;99.90;;;;;;4957272;28;20050;-79
2022/10/05 10:28:33;;;;;;;4.65;3.97;;;16.30;99.90;;;;;;4964228;28;20106;-78
2022/10/05 10:31:32;;;;;;;4.07;3.65;;;16.30;99.90;;;;;;4971517;28;20058;-79
2022/10/05 10:34:33;;;;;;;3.88;3.47;;;16.40;99.90;;;;;;4953644;29;20031;-78
2022/10/05 10:37:49;;;;;;;4.15;3.67;;;16.40;99.90;;;;;;4952513;29;20035;-78
2022/10/05 10:40:51;;;;;;;3.97;3.47;;;16.50;99.90;;;;;;4950351;29;20047;-79
2022/10/05 10:44:06;;;;;;;6.03;3.88;;;16.50;99.90;;;;;;4958685;28;20043;-79
2022/10/05 10:51:00;;;;;;;4.18;3.78;;;16.80;99.90;;;;;;4940204;29;20058;-78
2022/10/05 10:54:13;;;;;;;4.80;3.45;;;16.90;99.90;;;;;;4954076;29;20047;-78
2022/10/05 10:57:13;;;;;;;3.75;3.45;;;17.00;99.90;;;;;;4956835;28;20054;-78
2022/10/05 11:00:22;;;;;;;4.05;2.90;;;17.00;99.90;;;;;;4937303;29;20036;-78
2022/10/05 11:03:37;;;;;;;5.22;3.05;;;17.20;99.90;;;;;;4915258;29;20472;-79
2022/10/05 11:06:12;;;;;;;6.18;3.03;;;17.30;99.90;;;;;;4957180;28;20526;-78
2022/10/05 11:09:25;;;;;;;4.80;2.90;;;17.40;99.90;;;;;;4956661;29;20070;-79
2022/10/05 11:12:16;;;;;;;3.42;2.53;;;17.50;99.90;;;;;;4957572;28;20083;-79
2022/10/05 11:15:06;;;;;;;3.28;2.55;;;17.50;99.90;;;;;;4955309;28;20105;-78
2022/10/05 11:22:13;;;;;;;4.68;2.83;;;17.40;99.90;;;;;;4950664;29;20155;-80
2022/10/05 11:25:33;;;;;;;3.35;2.47;;;17.30;99.90;;;;;;4946328;28;20514;-80
2022/10/05 11:32:31;;;;;;;3.72;2.35;;;17.30;99.90;;;;;;4906065;29;20130;-80
2022/10/05 11:35:53;;;;;;;3.95;2.88;;;17.20;99.90;;;;;;4953248;28;20045;-79
2022/10/05 11:38:53;;;;;;;3.65;2.70;;;17.20;99.90;;;;;;4944509;29;20049;-78
2022/10/05 11:41:52;;;;;;;5.18;2.60;;;17.20;99.90;;;;;;4951856;28;20035;-79
2022/10/05 11:44:56;;;;;;;5.97;3.60;;;17.20;99.90;;;;;;4921312;29;20143;-79
2022/10/05 11:47:49;;;;;;;5.45;3.03;;;17.10;99.90;;;;;;4940942;29;20044;-80
2022/10/05 11:51:02;;;;;;;4.10;3.13;;;17.10;99.90;;;;;;4949842;29;20053;-79
2022/10/05 11:54:16;;;;;;;4.47;3.25;;;17.00;99.90;;;;;;4937936;29;20056;-78
2022/10/05 11:57:32;;;;;;;4.60;3.45;;;17.00;99.90;;;;;;5000682;23;20138;-80
2022/10/05 12:00:15;;;;;;;5.13;3.28;;;16.90;99.90;;;;;;4992907;28;20392;-79
2022/10/05 12:02:52;;;;;;;5.72;3.17;;;16.80;99.90;;;;;;4992458;28;20042;-79
2022/10/05 12:05:39;;;;;;;3.80;3.40;;;16.80;99.90;;;;;;4969536;28;20085;-78
2022/10/05 12:08:25;;;;;;;7.53;4.22;;;16.70;99.90;;;;;;4975470;28;20054;-79
2022/10/05 12:11:30;;;;;;;7.47;3.60;;;16.70;99.90;;;;;;4975626;28;20042;-78
2022/10/05 12:14:03;;;;;;;4.18;3.60;;;16.70;99.90;;;;;;4977007;28;20185;-79
2022/10/05 12:16:40;;;;;;;;;;;16.60;99.90;;;;;;4975653;28;20042;-78
2022/10/05 12:19:28;;;;;;;5.18;3.90;;;16.70;99.90;;;;;;4974703;28;20356;-79
2022/10/05 12:22:17;;;;;;;4.03;3.60;;;16.60;99.90;;;;;;4990988;28;20042;-78
2022/10/05 12:25:34;;;;;;;4.63;3.60;;;16.60;99.90;;;;;;4970483;28;20069;-78
2022/10/05 12:28:07;;;;;;;4.65;3.80;;;16.60;99.90;;;;;;4970749;28;20042;-79
2022/10/05 12:31:06;;;;;;;4.38;3.97;;;16.70;99.90;;;;;;4987927;28;20042;-79
2022/10/05 12:34:00;;;;;;;5.00;4.20;;;16.60;99.90;;;;;;4956172;28;20035;-78
2022/10/05 12:36:45;;;;;;;4.75;4.00;;;16.70;99.90;;;;;;4972060;28;20042;-78
2022/10/05 12:39:43;;;;;;;4.82;4.00;;;16.60;99.90;;;;;;4975839;28;20129;-78
2022/10/05 12:42:30;;;;;;;6.30;4.00;;;16.70;99.90;;;;;;4999959;28;20053;-78
2022/10/05 12:45:08;;;;;;;4.57;3.58;;;16.70;99.90;;;;;;4975438;28;20039;-79
2022/10/05 12:47:43;;;;;;;4.60;3.42;;;16.80;99.90;;;;;;4991025;28;20507;-79
2022/10/05 12:50:16;;;;;;;5.38;3.60;;;16.80;99.90;;;;;;4974028;28;20133;-78
2022/10/05 12:52:53;;;;;;;4.00;3.42;;;16.80;99.90;;;;;;4963126;28;20046;-79
2022/10/05 12:55:43;;;;;;;4.00;3.30;;;16.80;99.90;;;;;;4974769;28;20058;-79
2022/10/05 12:58:31;;;;;;;5.43;3.40;;;16.90;99.90;;;;;;4975169;28;20042;-79
2022/10/05 13:01:05;;;;;;;4.03;3.28;;;16.90;99.90;;;;;;4978750;28;20497;-79
2022/10/05 13:03:44;;;;;;;4.28;3.50;;;17.00;99.90;;;;;;4965560;28;20046;-79
2022/10/05 13:06:34;;;;;;;3.50;3.10;;;17.00;99.90;;;;;;4968549;28;20050;-78
2022/10/05 13:09:07;;;;;;;4.38;3.35;;;17.10;99.90;;;;;;4990185;28;20057;-78
2022/10/05 13:11:50;;;;;;;;;;;17.10;99.90;;;;;;4975597;28;20421;-79
2022/10/05 13:14:41;;;;;;;4.43;3.57;;;17.10;99.90;;;;;;4990871;28;19963;-78
2022/10/05 13:17:34;;;;;;;3.67;2.80;;;17.10;99.90;;;;;;4974583;28;20046;-78
2022/10/05 13:20:26;;;;;;;4.72;3.15;;;17.10;99.90;;;;;;4987910;28;20050;-78
2022/10/05 13:23:05;;;;;;;3.55;3.00;;;17.20;99.90;;;;;;4988285;28;20078;-78
2022/10/05 13:25:34;;;;;;;4.35;3.08;;;17.30;99.90;;;;;;4990721;28;20038;-78
2022/10/05 13:28:23;;;;;;;4.32;2.95;;;17.30;99.90;;;;;;4990584;28;20548;-78
2022/10/05 13:30:56;;;;;;;3.97;3.55;;;17.30;99.90;;;;;;4985630;28;20057;-78
2022/10/05 13:33:28;;;;;;;;;;;17.30;99.90;;;;;;4987481;28;20037;-78
2022/10/05 13:35:59;;;;;;;5.00;3.45;;;17.30;99.90;;;;;;4968385;28;19917;-79
2022/10/05 13:38:43;;;;;;;4.38;3.28;;;17.30;99.90;;;;;;4974219;28;20519;-79
2022/10/05 13:41:27;;;;;;;5.70;3.28;;;17.30;99.90;;;;;;4974599;28;20105;-78
2022/10/05 13:44:28;;;;;;;3.33;2.95;;;17.30;99.90;;;;;;4990851;28;20373;-79
2022/10/05 13:47:02;;;;;;;4.50;3.45;;;17.40;99.90;;;;;;4990527;28;20085;-79
2022/10/05 13:49:54;;;;;;;3.50;3.20;;;17.40;99.90;;;;;;4969080;28;20523;-78
2022/10/05 13:52:37;;;;;;;4.65;3.40;;;17.50;99.90;;;;;;4972475;28;20129;-79
2022/10/05 13:55:12;;;;;;;4.53;3.15;;;17.60;99.90;;;;;;4974808;28;20038;-78
2022/10/05 13:57:46;;;;;;;5.60;3.50;;;17.70;99.90;;;;;;4974213;28;20050;-79
2022/10/05 14:00:23;;;;;;;3.67;3.20;;;17.70;99.90;;;;;;4974693;28;20416;-80
2022/10/05 14:02:51;;;;;;;4.25;3.10;;;17.80;99.90;;;;;;4972560;28;20046;-77
2022/10/05 14:05:28;;;;;;;3.60;3.30;;;17.80;99.90;;;;;;4993357;28;20053;-79
2022/10/05 14:08:03;;;;;;;3.95;3.28;;;17.80;99.90;;;;;;4992482;28;20040;-78
2022/10/05 14:10:41;;;;;;;3.58;3.05;;;17.80;99.90;;;;;;4976618;28;20058;-80
2022/10/05 14:13:45;;;;;;;3.60;3.30;;;17.80;99.90;;;;;;4993085;28;20077;-79
2022/10/05 14:16:25;;;;;;;5.75;3.42;;;17.80;99.90;;;;;;4976760;28;20061;-79
2022/10/05 14:19:02;;;;;;;3.90;3.47;;;17.70;99.90;;;;;;4974645;28;20035;-78
2022/10/05 14:21:30;;;;;;;4.35;3.38;;;17.70;99.90;;;;;;4979175;28;20433;-78
2022/10/05 14:24:16;;;;;;;3.63;3.28;;;17.70;99.90;;;;;;4984857;28;20058;-78
2022/10/05 14:26:50;;;;;;;3.72;3.40;;;17.70;99.90;;;;;;4978702;28;20519;-79
2022/10/05 14:29:19;;;;;;;3.80;3.42;;;17.70;99.90;;;;;;4977979;28;20049;-79
2022/10/05 14:31:56;;;;;;;3.63;3.20;;;17.70;99.90;;;;;;4978816;28;20064;-78
2022/10/05 14:34:34;;;;;;;3.60;3.30;;;17.70;99.90;;;;;;5007161;28;20045;-79
2022/10/05 14:37:23;;;;;;;4.88;3.80;;;17.70;99.90;;;;;;4978921;28;20038;-78
2022/10/05 14:39:52;;;;;;;4.07;3.67;;;17.70;99.90;;;;;;4992551;28;20117;-78
2022/10/05 14:42:19;;;;;;;4.70;3.30;;;17.70;99.90;;;;;;4977651;28;20041;-79
2022/10/05 14:44:58;;;;;;;4.10;3.10;;;17.70;99.90;;;;;;4977967;28;20400;-78
2022/10/05 14:47:27;;;;;;;3.35;3.05;;;17.70;99.90;;;;;;4975772;28;20481;-78
2022/10/05 14:50:14;;;;;;;5.15;3.10;;;17.70;99.90;;;;;;4973499;28;20043;-78
2022/10/05 14:52:42;;;;;;;4.50;3.22;;;17.70;99.90;;;;;;4994208;28;20038;-78
2022/10/05 14:55:27;;;;;;;3.97;3.40;;;17.70;99.90;;;;;;4992574;28;20042;-79
2022/10/05 14:58:08;;;;;;;6.70;3.22;;;17.70;99.90;;;;;;4993455;28;20045;-79
2022/10/05 15:00:47;;;;;;;5.32;3.15;;;17.70;99.90;;;;;;4973844;28;20042;-78
2022/10/05 15:03:16;;;;;;;3.60;3.30;;;17.60;99.90;;;;;;4990398;28;20484;-78
2022/10/05 15:06:00;;;;;;;4.00;3.60;;;17.60;99.90;;;;;;4993074;28;20046;-78
2022/10/05 15:08:53;;;;;;;3.80;3.45;;;17.60;99.90;;;;;;4977486;28;20460;-78
2022/10/05 15:11:25;;;;;;;4.07;3.67;;;17.50;99.90;;;;;;4965799;28;20511;-78
2022/10/05 15:13:51;;;;;;;5.18;3.50;;;17.40;99.90;;;;;;4969052;28;20101;-77
2022/10/05 15:16:23;;;;;;;5.85;4.25;;;17.40;99.90;;;;;;4984624;28;20400;-79
2022/10/05 15:19:35;;;;;;;4.60;4.20;;;17.40;99.90;;;;;;4994628;28;20057;-79